sensor_id;sensor_type;location;lat;lon;timestamp;pressure;altitude;pressure_sealevel;temperature;humidity
31096;BME280;17749;51.962;8.560;2023-04-27T05:03:16;100546.16;;;1.63;100.00
31096;BME280;17749;51.962;8.560;2023-04-27T05:05:43;100547.88;;;1.64;100.00
31096;BME280;17749;51.962;8.560;2023-04-27T05:08:12;100546.13;;;1.59;100.00
31096;BME280;17749;51.962;8.560;2023-04-27T05:10:39;100547.00;;;1.59;100.00
31096;BME280;17749;51.962;8.560;2023-04-27T05:13:06;100546.13;;;1.60;100.00
31096;BME280;17749;51.962;8.560;2023-04-27T05:15:36;100549.63;;;1.62;100.00
31096;BME280;17749;51.962;8.560;2023-04-27T05:18:03;100555.75;;;1.64;100.00
31096;BME280;17749;51.962;8.560;2023-04-27T05:20:33;100564.53;;;1.69;100.00
31096;BME280;17749;51.962;8.560;2023-04-27T05:23:00;100561.03;;;1.72;100.00
31096;BME280;17749;51.962;8.560;2023-04-27T05:25:34;100558.44;;;1.73;100.00
31096;BME280;17749;51.962;8.560;2023-04-27T05:28:08;100564.56;;;1.77;100.00
31096;BME280;17749;51.962;8.560;2023-04-27T05:30:35;100566.31;;;1.83;100.00
31096;BME280;17749;51.962;8.560;2023-04-27T05:33:03;100567.22;;;1.91;100.00
31096;BME280;17749;51.962;8.560;2023-04-27T05:35:31;100569.00;;;1.98;100.00
31096;BME280;17749;51.962;8.560;2023-04-27T05:37:58;100569.88;;;2.06;100.00
31096;BME280;17749;51.962;8.560;2023-04-27T05:40:26;100569.91;;;2.14;100.00
31096;BME280;17749;51.962;8.560;2023-04-27T05:42:52;100576.94;;;2.24;100.00
31096;BME280;17749;51.962;8.560;2023-04-27T05:45:19;100576.06;;;2.33;100.00
31096;BME280;17749;51.962;8.560;2023-04-27T05:47:47;100574.31;;;2.41;100.00
31096;BME280;17749;51.962;8.560;2023-04-27T05:50:14;100585.72;;;2.54;100.00
31096;BME280;17749;51.962;8.560;2023-04-27T05:52:41;100582.22;;;2.66;100.00
31096;BME280;17749;51.962;8.560;2023-04-27T05:55:08;100582.22;;;2.76;100.00
31096;BME280;17749;51.962;8.560;2023-04-27T05:57:35;100595.34;;;2.93;100.00
31096;BME280;17749;51.962;8.560;2023-04-27T06:00:03;100591.81;;;3.08;100.00
31096;BME280;17749;51.962;8.560;2023-04-27T06:02:37;100585.63;;;3.24;100.00
31096;BME280;17749;51.962;8.560;2023-04-27T06:05:05;100595.25;;;3.48;100.00
31096;BME280;17749;51.962;8.560;2023-04-27T06:07:32;100592.50;;;3.73;100.00
31096;BME280;17749;51.962;8.560;2023-04-27T06:09:59;100598.50;;;4.03;100.00
31096;BME280;17749;51.962;8.560;2023-04-27T06:12:26;100585.19;;;4.27;100.00
31096;BME280;17749;51.962;8.560;2023-04-27T06:14:53;100582.31;;;4.55;100.00
31096;BME280;17749;51.962;8.560;2023-04-27T06:17:20;100582.16;;;4.76;100.00
31096;BME280;17749;51.962;8.560;2023-04-27T06:19:47;100580.19;;;4.97;100.00
31096;BME280;17749;51.962;8.560;2023-04-27T06:22:14;100589.59;;;5.27;100.00
31096;BME280;17749;51.962;8.560;2023-04-27T06:24:41;100587.50;;;5.57;100.00
31096;BME280;17749;51.962;8.560;2023-04-27T06:27:08;100593.22;;;5.91;100.00
31096;BME280;17749;51.962;8.560;2023-04-27T06:29:35;100586.56;;;6.29;100.00
31096;BME280;17749;51.962;8.560;2023-04-27T06:32:02;100580.72;;;6.63;100.00
31096;BME280;17749;51.962;8.560;2023-04-27T06:34:32;100577.69;;;6.87;100.00
31096;BME280;17749;51.962;8.560;2023-04-27T06:37:00;100576.44;;;7.07;100.00
31096;BME280;17749;51.962;8.560;2023-04-27T06:39:28;100583.06;;;7.31;100.00
31096;BME280;17749;51.962;8.560;2023-04-27T06:41:55;100581.78;;;7.52;100.00
31096;BME280;17749;51.962;8.560;2023-04-27T06:44:23;100583.16;;;7.71;100.00
31096;BME280;17749;51.962;8.560;2023-04-27T06:46:50;100581.69;;;7.98;100.00
31096;BME280;17749;51.962;8.560;2023-04-27T06:49:17;100580.94;;;8.32;100.00
31096;BME280;17749;51.962;8.560;2023-04-27T06:51:44;100587.34;;;8.62;100.00
31096;BME280;17749;51.962;8.560;2023-04-27T06:54:12;100586.81;;;8.84;100.00
31096;BME280;17749;51.962;8.560;2023-04-27T06:56:38;100583.28;;;9.17;100.00
31096;BME280;17749;51.962;8.560;2023-04-27T06:59:06;100586.97;;;9.44;100.00
31096;BME280;17749;51.962;8.560;2023-04-27T07:01:34;100581.31;;;9.57;100.00
31096;BME280;17749;51.962;8.560;2023-04-27T07:04:05;100584.94;;;9.84;100.00
31096;BME280;17749;51.962;8.560;2023-04-27T07:06:32;100590.06;;;9.90;100.00
31096;BME280;17749;51.962;8.560;2023-04-27T07:08:59;100585.03;;;10.10;100.00
31096;BME280;17749;51.962;8.560;2023-04-27T07:11:26;100595.09;;;10.30;100.00
31096;BME280;17749;51.962;8.560;2023-04-27T07:13:53;100584.75;;;10.49;94.30
31096;BME280;17749;51.962;8.560;2023-04-27T07:16:20;100578.53;;;10.77;97.21
31096;BME280;17749;51.962;8.560;2023-04-27T07:18:47;100586.63;;;11.01;93.05
31096;BME280;17749;51.962;8.560;2023-04-27T07:21:14;100584.50;;;11.35;96.41
31096;BME280;17749;51.962;8.560;2023-04-27T07:23:41;100591.03;;;11.75;93.60
31096;BME280;17749;51.962;8.560;2023-04-27T07:26:08;100582.56;;;11.89;86.58
31096;BME280;17749;51.962;8.560;2023-04-27T07:28:35;100571.69;;;12.17;88.93
31096;BME280;17749;51.962;8.560;2023-04-27T07:31:05;100574.06;;;12.47;87.81
31096;BME280;17749;51.962;8.560;2023-04-27T07:33:33;100573.19;;;12.68;84.96
31096;BME280;17749;51.962;8.560;2023-04-27T07:36:00;100570.97;;;13.00;82.94
31096;BME280;17749;51.962;8.560;2023-04-27T07:38:28;100573.00;;;13.15;80.25
31096;BME280;17749;51.962;8.560;2023-04-27T07:40:57;100570.75;;;13.27;77.16
31096;BME280;17749;51.962;8.560;2023-04-27T07:43:24;100572.56;;;13.25;76.21
31096;BME280;17749;51.962;8.560;2023-04-27T07:45:51;100562.66;;;13.28;77.24
31096;BME280;17749;51.962;8.560;2023-04-27T07:48:18;100567.38;;;13.63;76.52
31096;BME280;17749;51.962;8.560;2023-04-27T07:50:45;100566.09;;;13.90;75.24
31096;BME280;17749;51.962;8.560;2023-04-27T07:53:12;100557.63;;;14.18;74.06
31096;BME280;17749;51.962;8.560;2023-04-27T07:55:39;100565.06;;;14.12;66.40
31096;BME280;17749;51.962;8.560;2023-04-27T07:58:07;100567.84;;;13.91;70.78
31096;BME280;17749;51.962;8.560;2023-04-27T08:00:34;100560.31;;;13.99;70.69
31096;BME280;17749;51.962;8.560;2023-04-27T08:03:01;100566.66;;;13.78;67.39
31096;BME280;17749;51.962;8.560;2023-04-27T08:05:29;100561.94;;;13.83;67.60
31096;BME280;17749;51.962;8.560;2023-04-27T08:07:57;100556.53;;;14.03;70.67
31096;BME280;17749;51.962;8.560;2023-04-27T08:10:24;100563.44;;;14.28;67.43
31096;BME280;17749;51.962;8.560;2023-04-27T08:12:51;100558.34;;;14.22;65.97
31096;BME280;17749;51.962;8.560;2023-04-27T08:15:18;100555.81;;;14.19;65.47
31096;BME280;17749;51.962;8.560;2023-04-27T08:17:45;100562.47;;;14.29;66.52
31096;BME280;17749;51.962;8.560;2023-04-27T08:20:12;100553.91;;;14.40;66.83
31096;BME280;17749;51.962;8.560;2023-04-27T08:22:40;100559.00;;;14.27;65.35
31096;BME280;17749;51.962;8.560;2023-04-27T08:25:08;100559.44;;;13.99;66.75
31096;BME280;17749;51.962;8.560;2023-04-27T08:27:38;100562.03;;;14.00;67.50
31096;BME280;17749;51.962;8.560;2023-04-27T08:30:06;100563.13;;;14.15;68.96
31096;BME280;17749;51.962;8.560;2023-04-27T08:32:33;100556.81;;;14.35;66.17
31096;BME280;17749;51.962;8.560;2023-04-27T08:35:01;100556.72;;;14.56;68.26
31096;BME280;17749;51.962;8.560;2023-04-27T08:37:27;100573.69;;;14.37;65.44
31096;BME280;17749;51.962;8.560;2023-04-27T08:39:54;100564.00;;;14.16;65.48
31096;BME280;17749;51.962;8.560;2023-04-27T08:42:21;100568.84;;;14.08;66.02
31096;BME280;17749;51.962;8.560;2023-04-27T08:44:48;100563.06;;;14.17;64.63
31096;BME280;17749;51.962;8.560;2023-04-27T08:47:15;100559.41;;;13.80;63.91
31096;BME280;17749;51.962;8.560;2023-04-27T08:49:42;100557.69;;;13.79;64.02
31096;BME280;17749;51.962;8.560;2023-04-27T08:52:14;100546.53;;;13.88;62.92
31096;BME280;17749;51.962;8.560;2023-04-27T08:54:42;100549.66;;;13.98;62.66
31096;BME280;17749;51.962;8.560;2023-04-27T08:57:13;100545.53;;;14.29;63.52
31096;BME280;17749;51.962;8.560;2023-04-27T08:59:41;100555.22;;;14.31;60.74
31096;BME280;17749;51.962;8.560;2023-04-27T09:02:17;100551.63;;;14.13;59.97
31096;BME280;17749;51.962;8.560;2023-04-27T09:04:46;100559.41;;;14.56;62.56
31096;BME280;17749;51.962;8.560;2023-04-27T09:07:15;100551.09;;;14.79;60.17
31096;BME280;17749;51.962;8.560;2023-04-27T09:09:42;100554.72;;;15.13;59.29
31096;BME280;17749;51.962;8.560;2023-04-27T09:12:14;100558.03;;;15.36;58.53
31096;BME280;17749;51.962;8.560;2023-04-27T09:14:43;100559.31;;;15.28;59.08
31096;BME280;17749;51.962;8.560;2023-04-27T09:17:25;100561.53;;;15.20;57.23
31096;BME280;17749;51.962;8.560;2023-04-27T09:20:22;100561.06;;;15.12;57.67
31096;BME280;17749;51.962;8.560;2023-04-27T09:22:52;100556.31;;;15.17;56.79
31096;BME280;17749;51.962;8.560;2023-04-27T09:25:27;100547.25;;;15.20;57.28
31096;BME280;17749;51.962;8.560;2023-04-27T09:27:55;100553.94;;;15.11;58.12
31096;BME280;17749;51.962;8.560;2023-04-27T09:30:25;100554.16;;;15.24;57.37
31096;BME280;17749;51.962;8.560;2023-04-27T09:32:57;100549.03;;;15.37;55.94
31096;BME280;17749;51.962;8.560;2023-04-27T09:35:26;100556.31;;;15.17;52.03
31096;BME280;17749;51.962;8.560;2023-04-27T09:37:55;100547.31;;;15.18;51.65
31096;BME280;17749;51.962;8.560;2023-04-27T09:40:24;100537.34;;;15.38;55.50
31096;BME280;17749;51.962;8.560;2023-04-27T09:43:00;100550.22;;;15.82;53.18
31096;BME280;17749;51.962;8.560;2023-04-27T09:45:32;100543.50;;;16.06;52.25
31096;BME280;17749;51.962;8.560;2023-04-27T09:48:00;100546.81;;;16.11;50.58
31096;BME280;17749;51.962;8.560;2023-04-27T09:50:27;100527.53;;;16.03;50.15
31096;BME280;17749;51.962;8.560;2023-04-27T09:52:54;100543.53;;;15.73;49.92
31096;BME280;17749;51.962;8.560;2023-04-27T09:55:36;100534.59;;;15.39;52.09
31096;BME280;17749;51.962;8.560;2023-04-27T10:09:24;100531.06;;;15.72;52.63
31096;BME280;17749;51.962;8.560;2023-04-27T10:11:53;100514.19;;;15.86;52.16
31096;BME280;17749;51.962;8.560;2023-04-27T10:14:21;100517.94;;;16.15;52.41
31096;BME280;17749;51.962;8.560;2023-04-27T10:16:54;100511.31;;;16.36;50.44
31096;BME280;17749;51.962;8.560;2023-04-27T10:19:22;100513.94;;;16.38;48.77
31096;BME280;17749;51.962;8.560;2023-04-27T10:22:00;100525.16;;;16.60;51.20
31096;BME280;17749;51.962;8.560;2023-04-27T10:24:34;100522.06;;;16.52;48.78
31096;BME280;17749;51.962;8.560;2023-04-27T10:27:09;100505.59;;;16.27;50.50
31096;BME280;17749;51.962;8.560;2023-04-27T10:29:37;100503.03;;;16.25;50.89
31096;BME280;17749;51.962;8.560;2023-04-27T10:32:12;100503.88;;;16.26;50.77
31096;BME280;17749;51.962;8.560;2023-04-27T10:34:40;100493.47;;;16.35;51.16
31096;BME280;17749;51.962;8.560;2023-04-27T10:37:10;100491.53;;;16.53;49.38
31096;BME280;17749;51.962;8.560;2023-04-27T10:39:40;100495.94;;;16.54;49.27
31096;BME280;17749;51.962;8.560;2023-04-27T10:42:25;100493.31;;;16.23;49.54
31096;BME280;17749;51.962;8.560;2023-04-27T10:44:56;100492.72;;;16.17;49.99
31096;BME280;17749;51.962;8.560;2023-04-27T10:47:23;100484.13;;;16.11;48.33
31096;BME280;17749;51.962;8.560;2023-04-27T10:50:03;100484.56;;;16.03;50.59
31096;BME280;17749;51.962;8.560;2023-04-27T10:52:30;100495.91;;;15.92;51.14
31096;BME280;17749;51.962;8.560;2023-04-27T10:54:57;100495.41;;;15.68;49.31
31096;BME280;17749;51.962;8.560;2023-04-27T10:57:25;100490.69;;;15.73;51.08
31096;BME280;17749;51.962;8.560;2023-04-27T10:59:53;100495.22;;;15.89;50.29
31096;BME280;17749;51.962;8.560;2023-04-27T11:02:25;100483.25;;;16.10;50.98
31096;BME280;17749;51.962;8.560;2023-04-27T11:04:54;100474.75;;;16.34;48.92
31096;BME280;17749;51.962;8.560;2023-04-27T11:07:26;100480.53;;;16.42;50.95
31096;BME280;17749;51.962;8.560;2023-04-27T11:09:54;100479.97;;;16.05;48.73
31096;BME280;17749;51.962;8.560;2023-04-27T11:12:20;100470.59;;;16.12;50.71
31096;BME280;17749;51.962;8.560;2023-04-27T11:14:47;100472.16;;;16.62;51.29
31096;BME280;17749;51.962;8.560;2023-04-27T11:17:14;100458.56;;;17.10;49.87
31096;BME280;17749;51.962;8.560;2023-04-27T11:19:45;100463.56;;;17.16;48.32
31096;BME280;17749;51.962;8.560;2023-04-27T11:22:15;100455.34;;;16.89;46.49
31096;BME280;17749;51.962;8.560;2023-04-27T11:24:47;100459.81;;;16.44;49.12
31096;BME280;17749;51.962;8.560;2023-04-27T11:27:15;100462.59;;;16.27;49.52
31096;BME280;17749;51.962;8.560;2023-04-27T11:29:43;100449.63;;;16.35;48.40
31096;BME280;17749;51.962;8.560;2023-04-27T11:32:20;100446.84;;;16.67;48.88
31096;BME280;17749;51.962;8.560;2023-04-27T11:34:52;100446.00;;;16.50;49.45
31096;BME280;17749;51.962;8.560;2023-04-27T11:37:23;100457.81;;;16.32;50.30
31096;BME280;17749;51.962;8.560;2023-04-27T11:39:52;100452.78;;;16.41;49.04
31096;BME280;17749;51.962;8.560;2023-04-27T11:42:24;100450.72;;;16.31;49.21
31096;BME280;17749;51.962;8.560;2023-04-27T11:45:04;100446.84;;;16.67;50.29
31096;BME280;17749;51.962;8.560;2023-04-27T11:47:32;100447.00;;;16.94;48.94
31096;BME280;17749;51.962;8.560;2023-04-27T11:50:03;100435.88;;;17.28;48.72
31096;BME280;17749;51.962;8.560;2023-04-27T11:52:32;100451.75;;;17.19;47.86
31096;BME280;17749;51.962;8.560;2023-04-27T11:55:00;100432.81;;;16.76;49.05
31096;BME280;17749;51.962;8.560;2023-04-27T11:57:29;100435.63;;;16.44;48.78
31096;BME280;17749;51.962;8.560;2023-04-27T11:59:59;100441.25;;;16.39;49.05
31096;BME280;17749;51.962;8.560;2023-04-27T12:02:28;100434.56;;;16.00;46.97
31096;BME280;17749;51.962;8.560;2023-04-27T12:04:57;100442.97;;;15.78;47.80
31096;BME280;17749;51.962;8.560;2023-04-27T12:07:25;100443.06;;;15.77;48.40
31096;BME280;17749;51.962;8.560;2023-04-27T12:09:52;100446.88;;;15.89;49.82
31096;BME280;17749;51.962;8.560;2023-04-27T12:12:20;100451.69;;;16.30;49.62
31096;BME280;17749;51.962;8.560;2023-04-27T12:14:50;100453.94;;;16.37;49.46
31096;BME280;17749;51.962;8.560;2023-04-27T12:17:18;100447.34;;;16.43;48.32
31096;BME280;17749;51.962;8.560;2023-04-27T12:19:44;100445.34;;;16.31;48.56
31096;BME280;17749;51.962;8.560;2023-04-27T12:22:11;100429.97;;;16.49;47.88
31096;BME280;17749;51.962;8.560;2023-04-27T12:24:39;100434.50;;;16.48;47.70
31096;BME280;17749;51.962;8.560;2023-04-27T12:27:06;100437.00;;;16.51;46.96
31096;BME280;17749;51.962;8.560;2023-04-27T12:29:34;100430.50;;;16.39;47.76
31096;BME280;17749;51.962;8.560;2023-04-27T12:32:01;100440.09;;;16.59;49.14
31096;BME280;17749;51.962;8.560;2023-04-27T12:34:28;100432.81;;;16.76;47.68
31096;BME280;17749;51.962;8.560;2023-04-27T12:36:55;100428.38;;;16.91;47.74
31096;BME280;17749;51.962;8.560;2023-04-27T12:39:22;100442.41;;;16.96;46.89
31096;BME280;17749;51.962;8.560;2023-04-27T12:41:52;100429.81;;;16.96;48.15
31096;BME280;17749;51.962;8.560;2023-04-27T12:44:19;100425.38;;;16.81;48.25
31096;BME280;17749;51.962;8.560;2023-04-27T12:46:47;100432.03;;;16.74;48.98
31096;BME280;17749;51.962;8.560;2023-04-27T12:49:15;100425.47;;;16.79;48.19
31096;BME280;17749;51.962;8.560;2023-04-27T12:51:42;100420.88;;;16.65;48.16
31096;BME280;17749;51.962;8.560;2023-04-27T12:54:09;100419.56;;;16.73;48.37
31096;BME280;17749;51.962;8.560;2023-04-27T12:56:38;100421.56;;;16.99;47.31
31096;BME280;17749;51.962;8.560;2023-04-27T12:59:05;100420.41;;;17.03;48.57
31096;BME280;17749;51.962;8.560;2023-04-27T13:01:33;100415.59;;;17.23;47.21
31096;BME280;17749;51.962;8.560;2023-04-27T13:04:02;100416.88;;;16.73;47.61
31096;BME280;17749;51.962;8.560;2023-04-27T13:06:30;100417.13;;;16.54;47.51
31096;BME280;17749;51.962;8.560;2023-04-27T13:08:58;100423.97;;;16.13;47.26
31096;BME280;17749;51.962;8.560;2023-04-27T13:11:25;100421.75;;;15.90;49.23
31096;BME280;17749;51.962;8.560;2023-04-27T13:13:52;100423.78;;;16.16;47.70
31096;BME280;17749;51.962;8.560;2023-04-27T13:16:21;100420.28;;;16.46;47.40
31096;BME280;17749;51.962;8.560;2023-04-27T13:18:52;100421.38;;;16.72;48.26
31096;BME280;17749;51.962;8.560;2023-04-27T13:21:21;100422.16;;;17.19;47.32
31096;BME280;17749;51.962;8.560;2023-04-27T13:23:48;100416.34;;;17.39;46.39
31096;BME280;17749;51.962;8.560;2023-04-27T13:26:16;100411.91;;;17.52;46.68
31096;BME280;17749;51.962;8.560;2023-04-27T13:28:43;100411.69;;;17.70;47.45
31096;BME280;17749;51.962;8.560;2023-04-27T13:31:10;100415.56;;;17.51;47.14
31096;BME280;17749;51.962;8.560;2023-04-27T13:33:40;100414.44;;;17.41;47.32
31096;BME280;17749;51.962;8.560;2023-04-27T13:36:11;100406.50;;;17.11;47.30
31096;BME280;17749;51.962;8.560;2023-04-27T13:38:39;100414.66;;;16.95;47.67
31096;BME280;17749;51.962;8.560;2023-04-27T13:41:06;100410.91;;;16.98;47.65
31096;BME280;17749;51.962;8.560;2023-04-27T13:43:33;100409.44;;;16.92;48.44
31096;BME280;17749;51.962;8.560;2023-04-27T13:46:01;100402.16;;;17.08;47.12
31096;BME280;17749;51.962;8.560;2023-04-27T13:48:28;100398.69;;;17.21;47.33
31096;BME280;17749;51.962;8.560;2023-04-27T13:50:56;100399.25;;;17.26;47.78
31096;BME280;17749;51.962;8.560;2023-04-27T13:53:24;100391.56;;;17.34;47.40
31096;BME280;17749;51.962;8.560;2023-04-27T13:55:56;100396.69;;;17.24;47.22
31096;BME280;17749;51.962;8.560;2023-04-27T13:58:23;100398.69;;;17.06;47.16
31096;BME280;17749;51.962;8.560;2023-04-27T14:00:52;100386.97;;;16.93;48.08
31096;BME280;17749;51.962;8.560;2023-04-27T14:03:20;100385.44;;;16.59;47.56
31096;BME280;17749;51.962;8.560;2023-04-27T14:05:48;100390.84;;;16.29;49.40
31096;BME280;17749;51.962;8.560;2023-04-27T14:08:17;100381.34;;;16.07;46.96
31096;BME280;17749;51.962;8.560;2023-04-27T14:10:45;100377.06;;;15.89;48.42
31096;BME280;17749;51.962;8.560;2023-04-27T14:13:12;100373.41;;;15.58;49.92
31096;BME280;17749;51.962;8.560;2023-04-27T14:15:40;100376.88;;;15.44;48.96
31096;BME280;17749;51.962;8.560;2023-04-27T14:18:07;100358.31;;;15.40;49.67
31096;BME280;17749;51.962;8.560;2023-04-27T14:20:35;100365.59;;;15.38;47.98
31096;BME280;17749;51.962;8.560;2023-04-27T14:23:04;100364.22;;;15.30;49.98
31096;BME280;17749;51.962;8.560;2023-04-27T14:25:31;100361.44;;;15.32;50.01
31096;BME280;17749;51.962;8.560;2023-04-27T14:28:01;100361.38;;;15.33;49.71
31096;BME280;17749;51.962;8.560;2023-04-27T14:30:30;100371.22;;;15.17;48.65
31096;BME280;17749;51.962;8.560;2023-04-27T14:32:57;100370.22;;;15.02;49.88
31096;BME280;17749;51.962;8.560;2023-04-27T14:35:24;100368.78;;;14.79;48.68
31096;BME280;17749;51.962;8.560;2023-04-27T14:37:52;100371.50;;;14.62;47.99
31096;BME280;17749;51.962;8.560;2023-04-27T14:40:19;100363.28;;;14.47;49.45
31096;BME280;17749;51.962;8.560;2023-04-27T14:42:46;100357.22;;;14.44;49.81
31096;BME280;17749;51.962;8.560;2023-04-27T14:45:14;100368.34;;;14.36;50.61
31096;BME280;17749;51.962;8.560;2023-04-27T14:47:41;100363.16;;;14.33;50.62
31096;BME280;17749;51.962;8.560;2023-04-27T14:50:08;100367.88;;;14.28;50.82
31096;BME280;17749;51.962;8.560;2023-04-27T14:52:37;100355.88;;;14.18;50.66
31096;BME280;17749;51.962;8.560;2023-04-27T14:55:05;100357.94;;;14.13;51.08
31096;BME280;17749;51.962;8.560;2023-04-27T14:57:33;100356.97;;;14.14;51.73
31096;BME280;17749;51.962;8.560;2023-04-27T14:59:59;100355.72;;;14.21;52.65
31096;BME280;17749;51.962;8.560;2023-04-27T15:02:26;100362.09;;;14.18;51.47
31096;BME280;17749;51.962;8.560;2023-04-27T15:04:53;100352.31;;;14.00;49.43
31096;BME280;17749;51.962;8.560;2023-04-27T15:07:21;100346.13;;;13.99;51.82
31096;BME280;17749;51.962;8.560;2023-04-27T15:09:47;100356.34;;;14.09;52.90
31096;BME280;17749;51.962;8.560;2023-04-27T15:12:14;100348.00;;;14.15;51.80
31096;BME280;17749;51.962;8.560;2023-04-27T15:14:41;100348.94;;;14.14;52.57
31096;BME280;17749;51.962;8.560;2023-04-27T15:17:08;100341.69;;;14.16;52.45
31096;BME280;17749;51.962;8.560;2023-04-27T15:19:34;100342.56;;;14.16;52.92
31096;BME280;17749;51.962;8.560;2023-04-27T15:22:02;100337.38;;;14.13;51.93
31096;BME280;17749;51.962;8.560;2023-04-27T15:24:28;100340.91;;;14.14;51.85
31096;BME280;17749;51.962;8.560;2023-04-27T15:26:55;100338.72;;;14.05;52.12
31096;BME280;17749;51.962;8.560;2023-04-27T15:29:22;100336.59;;;13.94;50.60
31096;BME280;17749;51.962;8.560;2023-04-27T15:31:49;100331.50;;;13.88;52.10
31096;BME280;17749;51.962;8.560;2023-04-27T15:34:17;100337.34;;;13.78;51.58
31096;BME280;17749;51.962;8.560;2023-04-27T15:36:43;100329.38;;;13.77;51.50
31096;BME280;17749;51.962;8.560;2023-04-27T15:39:10;100335.69;;;13.76;51.15
31096;BME280;17749;51.962;8.560;2023-04-27T15:41:37;100340.41;;;13.71;51.90
31096;BME280;17749;51.962;8.560;2023-04-27T15:44:06;100333.16;;;13.73;52.87
31096;BME280;17749;51.962;8.560;2023-04-27T15:46:33;100326.53;;;13.63;53.38
31096;BME280;17749;51.962;8.560;2023-04-27T15:49:00;100314.94;;;13.62;53.38
31096;BME280;17749;51.962;8.560;2023-04-27T15:51:27;100309.75;;;13.59;53.34
31096;BME280;17749;51.962;8.560;2023-04-27T15:53:54;100313.38;;;13.58;53.83
31096;BME280;17749;51.962;8.560;2023-04-27T15:56:21;100309.03;;;13.55;52.95
31096;BME280;17749;51.962;8.560;2023-04-27T15:58:48;100314.81;;;13.46;52.68
31096;BME280;17749;51.962;8.560;2023-04-27T16:01:14;100315.44;;;13.34;52.47
31096;BME280;17749;51.962;8.560;2023-04-27T16:03:41;100309.56;;;13.26;53.04
31096;BME280;17749;51.962;8.560;2023-04-27T16:06:09;100308.03;;;13.20;53.34
31096;BME280;17749;51.962;8.560;2023-04-27T16:08:36;100313.38;;;13.20;54.02
31096;BME280;17749;51.962;8.560;2023-04-27T16:11:03;100315.28;;;13.18;54.94
31096;BME280;17749;51.962;8.560;2023-04-27T16:13:30;100312.50;;;13.20;54.34
31096;BME280;17749;51.962;8.560;2023-04-27T16:15:58;100314.38;;;13.18;54.02
31096;BME280;17749;51.962;8.560;2023-04-27T16:18:25;100304.69;;;13.15;54.37
31096;BME280;17749;51.962;8.560;2023-04-27T16:20:52;100311.06;;;13.12;53.74
31096;BME280;17749;51.962;8.560;2023-04-27T16:23:19;100301.47;;;13.08;54.22
31096;BME280;17749;51.962;8.560;2023-04-27T16:25:45;100307.66;;;13.09;54.76
31096;BME280;17749;51.962;8.560;2023-04-27T16:28:12;100302.25;;;13.10;54.40
31096;BME280;17749;51.962;8.560;2023-04-27T16:30:39;100299.66;;;13.09;54.42
31096;BME280;17749;51.962;8.560;2023-04-27T16:33:07;100293.81;;;13.01;53.84
31096;BME280;17749;51.962;8.560;2023-04-27T16:35:34;100293.94;;;12.98;55.15
31096;BME280;17749;51.962;8.560;2023-04-27T16:38:01;100290.41;;;12.97;54.70
31096;BME280;17749;51.962;8.560;2023-04-27T16:40:27;100286.78;;;12.98;55.45
31096;BME280;17749;51.962;8.560;2023-04-27T16:42:54;100284.94;;;13.00;55.01
31096;BME280;17749;51.962;8.560;2023-04-27T16:45:21;100283.97;;;13.01;55.39
31096;BME280;17749;51.962;8.560;2023-04-27T16:47:48;100268.28;;;12.93;53.89
31096;BME280;17749;51.962;8.560;2023-04-27T16:50:15;100271.06;;;12.92;53.69
31096;BME280;17749;51.962;8.560;2023-04-27T16:52:42;100264.09;;;12.88;53.71
31096;BME280;17749;51.962;8.560;2023-04-27T16:55:09;100265.72;;;12.92;55.30
31096;BME280;17749;51.962;8.560;2023-04-27T16:57:36;100268.22;;;12.95;55.33
31096;BME280;17749;51.962;8.560;2023-04-27T17:00:03;100269.25;;;12.92;55.02
31096;BME280;17749;51.962;8.560;2023-04-27T17:02:34;100269.31;;;12.91;54.87
31096;BME280;17749;51.962;8.560;2023-04-27T17:05:02;100272.06;;;12.89;55.23
31096;BME280;17749;51.962;8.560;2023-04-27T17:07:29;100276.66;;;12.86;55.32
31096;BME280;17749;51.962;8.560;2023-04-27T17:09:58;100275.25;;;12.79;54.58
31096;BME280;17749;51.962;8.560;2023-04-27T17:12:25;100271.78;;;12.77;55.42
31096;BME280;17749;51.962;8.560;2023-04-27T17:14:52;100278.97;;;12.75;54.40
31096;BME280;17749;51.962;8.560;2023-04-27T17:17:19;100274.84;;;12.67;55.28
31096;BME280;17749;51.962;8.560;2023-04-27T17:19:46;100264.41;;;12.63;54.86
31096;BME280;17749;51.962;8.560;2023-04-27T17:22:13;100261.06;;;12.58;55.00
31096;BME280;17749;51.962;8.560;2023-04-27T17:24:40;100268.34;;;12.54;54.96
31096;BME280;17749;51.962;8.560;2023-04-27T17:27:07;100260.63;;;12.48;54.80
31096;BME280;17749;51.962;8.560;2023-04-27T17:29:34;100266.25;;;12.42;55.10
31096;BME280;17749;51.962;8.560;2023-04-27T17:32:01;100266.31;;;12.40;54.00
31096;BME280;17749;51.962;8.560;2023-04-27T17:34:28;100256.91;;;12.32;54.36
31096;BME280;17749;51.962;8.560;2023-04-27T17:36:55;100258.09;;;12.24;54.77
31096;BME280;17749;51.962;8.560;2023-04-27T17:39:22;100256.34;;;12.23;54.66
31096;BME280;17749;51.962;8.560;2023-04-27T17:41:50;100252.91;;;12.21;55.03
31096;BME280;17749;51.962;8.560;2023-04-27T17:44:17;100245.25;;;12.14;54.92
31096;BME280;17749;51.962;8.560;2023-04-27T17:46:46;100240.09;;;12.09;56.22
31096;BME280;17749;51.962;8.560;2023-04-27T17:49:14;100249.06;;;12.08;56.50
31096;BME280;17749;51.962;8.560;2023-04-27T17:51:43;100251.13;;;12.01;56.94
31096;BME280;17749;51.962;8.560;2023-04-27T17:54:10;100243.19;;;12.00;56.88
31096;BME280;17749;51.962;8.560;2023-04-27T17:56:38;100245.19;;;11.95;56.97
31096;BME280;17749;51.962;8.560;2023-04-27T17:59:05;100248.06;;;11.90;57.10
31096;BME280;17749;51.962;8.560;2023-04-27T18:01:33;100247.34;;;11.85;58.66
31096;BME280;17749;51.962;8.560;2023-04-27T18:04:00;100245.81;;;11.79;58.02
31096;BME280;17749;51.962;8.560;2023-04-27T18:06:30;100246.13;;;11.72;58.83
31096;BME280;17749;51.962;8.560;2023-04-27T18:08:57;100243.72;;;11.66;58.14